Share

Clearfield, PA (16830)

Clearfield-Lawrence (KFIG) Elev 1516 ft | 41.05 °N, 78.41 °W | Change Station

Current weather conditions updated 37 minutes ago

Clear
Clear
33 °F
Feels Like 29 °F
N
5
Wind Variable Wind from East
Sunrise 6:30 AM
Sunset 7:56 PM
Moon Waning Gibbous

Today is forecast to be Much Warmer than yesterday.

Pressure 30.43 in
Visibility 10.0 miles
Clouds Clear
Windchill 29 °F
Dew Point 29 °F
Humidity 85%
Rainfall 0.00 in
Snow Depth Not available.
UV 0 out of 16
Pollen 9.80 out of 12
Air Quality Not available.
Flu Activity Local Activity
METAR KFIG 181054Z AUTO 08004KT 10SM CLR 01/M02 A3040 RMK AO2 SLP304 T00061017

More Conditions Fewer Conditions

Pressure 30.43 in
Visibility 10.0 miles
Clouds Clear
Windchill 29 °F
Dew Point 29 °F
Humidity 85%
Rainfall 0.00 in
Snow Depth Not available.
UV 0 out of 16
Pollen 9.80 out of 12
Air Quality Not available.
Flu Activity Local Activity
METAR KFIG 181054Z AUTO 08004KT 10SM CLR 01/M02 A3040 RMK AO2 SLP304 T00061017

More Conditions Fewer Conditions

10-Day Forecast

Almanac

Astronomy

Apr. 18, 2014 Rise Set
Actual Time 6:30 AM EDT 7:56 PM EDT
Civil Twilight 6:01 AM EDT 8:25 PM EDT
Nautical Twilight 5:26 AM EDT 9:00 PM EDT
Astronomical Twilight 4:50 AM EDT 9:37 PM EDT
Moon 11:41 PM EDT 8:49 AM EDT
Length of Visible Light 14h 24m
Length of Day
13h 26m
Tomorrow will be 2m 34s longer.
Waning Gibbous, 88% of the Moon is Illuminated
Today
Waning Gibbous
Apr 22
Last Quarter
Apr 29
New
May 6
First Quarter
May 14
Full

Today's Extremes

State Highs State Lows

Community

  • SUNRISE THROUGH THE TREES.
    SUNRISE THROUGH THE TREES.
  • Dog Wood Blossoms
    Dog Wood Blossoms
  • Morning Light
    Morning Light
  • New Day
    New Day
  • Lake Michigan Sunrise
    Lake Michigan Sunrise

WunderPhotos

Upload Photos

1,702,313 photos uploaded!

Nearby

Snow Depth

Station Depth Elevation
No new snow has been reported.

Coastal Water Temperatures

Place Temperature
No Stations Reporting

Earthquake Activity

City Distance Mag. Time & Date
No recent earthquake activity has been reported nearby.
Minimum magnitude displayed is 2.5.

Nearby Weather Stations

Station Location Temp. Windchill Dew Point Humidity Wind Precip. Elev Updated Type
RAWS KENNEDY PRESERVE PA, Penfield, PA 31 °F 24 °F 27 °F 86% SSE  at  7 mph 0.00 in / hr 2121 ft 6:08 AM EDT MADIS
Holly Terrace, Falls Creek, PA 34.9 °F 35 °F 33 °F 92% East  at  0.0 mph 0.00 in / hr 1483 ft 7:31 AM EDT Rapid Fire

Show More Stations Show Fewer Stations

What do you think?

We're not finished. Please let us know what you like, what you don't like, and what you are still missing.